Terminal Aerodrome Forecast
Issued by NWS

Home | Current Version | Previous Version | Text Only | Print | Product List | Glossary On
Versions: 1 2 3 4 5 6 7 8 9 10 11 12 13 14
000
FTUS45 KTFX 280520
TAFGTF
TAF
KGTF 280520Z 2806/2906 24005KT P6SM SCT050 BKN080
     FM281500 25006KT P6SM -SHRA BKN060
     FM281800 VRB06KT P6SM VCTS BKN050CB PROB30 2820/2902 VRB25G35KT
      4SM -TSRA BKN030CB
     FM290200 28007KT P6SM VCSH SCT040 BKN070=

USA.gov is the U.S. government's official web portal to all federal, state and local government web resources and services.